sensor_id;sensor_type;location;lat;lon;timestamp;P1;durP1;ratioP1;P2;durP2;ratioP2
21806;SDS011;11065;50.786;7.840;2024-02-23T00:01:06;0.40;;;0.20;;
21806;SDS011;11065;50.786;7.840;2024-02-23T00:03:34;0.53;;;0.20;;
21806;SDS011;11065;50.786;7.840;2024-02-23T00:06:03;1.83;;;0.30;;
21806;SDS011;11065;50.786;7.840;2024-02-23T00:08:31;0.73;;;0.30;;
21806;SDS011;11065;50.786;7.840;2024-02-23T00:11:00;1.10;;;0.23;;
21806;SDS011;11065;50.786;7.840;2024-02-23T00:13:28;0.70;;;0.20;;
21806;SDS011;11065;50.786;7.840;2024-02-23T00:15:56;0.60;;;0.30;;
21806;SDS011;11065;50.786;7.840;2024-02-23T00:18:24;0.87;;;0.20;;
21806;SDS011;11065;50.786;7.840;2024-02-23T00:20:52;0.70;;;0.30;;
21806;SDS011;11065;50.786;7.840;2024-02-23T00:23:20;0.87;;;0.20;;
21806;SDS011;11065;50.786;7.840;2024-02-23T00:25:48;0.63;;;0.30;;
21806;SDS011;11065;50.786;7.840;2024-02-23T00:28:17;0.57;;;0.30;;
21806;SDS011;11065;50.786;7.840;2024-02-23T00:30:45;1.17;;;0.30;;
21806;SDS011;11065;50.786;7.840;2024-02-23T00:33:13;0.80;;;0.40;;
21806;SDS011;11065;50.786;7.840;2024-02-23T00:35:41;0.73;;;0.30;;
21806;SDS011;11065;50.786;7.840;2024-02-23T00:38:09;0.10;;;0.10;;
21806;SDS011;11065;50.786;7.840;2024-02-23T00:40:37;0.47;;;0.30;;
21806;SDS011;11065;50.786;7.840;2024-02-23T00:43:05;0.43;;;0.20;;
21806;SDS011;11065;50.786;7.840;2024-02-23T00:45:34;0.57;;;0.20;;
21806;SDS011;11065;50.786;7.840;2024-02-23T00:48:02;0.40;;;0.20;;
21806;SDS011;11065;50.786;7.840;2024-02-23T00:50:31;0.53;;;0.20;;
21806;SDS011;11065;50.786;7.840;2024-02-23T00:52:58;0.30;;;0.20;;
21806;SDS011;11065;50.786;7.840;2024-02-23T00:55:26;0.70;;;0.23;;
21806;SDS011;11065;50.786;7.840;2024-02-23T00:57:54;0.60;;;0.20;;
21806;SDS011;11065;50.786;7.840;2024-02-23T01:00:22;0.40;;;0.10;;
21806;SDS011;11065;50.786;7.840;2024-02-23T01:02:52;0.50;;;0.20;;
21806;SDS011;11065;50.786;7.840;2024-02-23T01:05:20;0.43;;;0.17;;
21806;SDS011;11065;50.786;7.840;2024-02-23T01:07:48;0.23;;;0.13;;
21806;SDS011;11065;50.786;7.840;2024-02-23T01:10:16;0.73;;;0.20;;
21806;SDS011;11065;50.786;7.840;2024-02-23T01:12:44;0.40;;;0.20;;
21806;SDS011;11065;50.786;7.840;2024-02-23T01:15:12;0.10;;;0.10;;
21806;SDS011;11065;50.786;7.840;2024-02-23T01:17:40;0.10;;;0.10;;
21806;SDS011;11065;50.786;7.840;2024-02-23T01:20:09;0.13;;;0.10;;
21806;SDS011;11065;50.786;7.840;2024-02-23T01:22:38;0.20;;;0.17;;
21806;SDS011;11065;50.786;7.840;2024-02-23T01:25:06;0.67;;;0.10;;
21806;SDS011;11065;50.786;7.840;2024-02-23T01:27:34;0.10;;;0.10;;
21806;SDS011;11065;50.786;7.840;2024-02-23T01:30:02;0.53;;;0.20;;
21806;SDS011;11065;50.786;7.840;2024-02-23T01:32:30;0.10;;;0.10;;
21806;SDS011;11065;50.786;7.840;2024-02-23T01:34:59;0.20;;;0.10;;
21806;SDS011;11065;50.786;7.840;2024-02-23T01:37:28;0.20;;;0.10;;
21806;SDS011;11065;50.786;7.840;2024-02-23T01:39:56;0.20;;;0.17;;
21806;SDS011;11065;50.786;7.840;2024-02-23T01:42:25;0.33;;;0.17;;
21806;SDS011;11065;50.786;7.840;2024-02-23T01:44:53;0.20;;;0.10;;
21806;SDS011;11065;50.786;7.840;2024-02-23T01:47:22;0.10;;;0.10;;
21806;SDS011;11065;50.786;7.840;2024-02-23T01:49:51;0.47;;;0.20;;
21806;SDS011;11065;50.786;7.840;2024-02-23T01:52:21;0.17;;;0.13;;
21806;SDS011;11065;50.786;7.840;2024-02-23T01:54:51;0.53;;;0.20;;
21806;SDS011;11065;50.786;7.840;2024-02-23T01:57:19;0.30;;;0.20;;
21806;SDS011;11065;50.786;7.840;2024-02-23T02:00:09;0.27;;;0.20;;
21806;SDS011;11065;50.786;7.840;2024-02-23T02:02:48;0.97;;;0.20;;
21806;SDS011;11065;50.786;7.840;2024-02-23T02:05:17;0.50;;;0.10;;
21806;SDS011;11065;50.786;7.840;2024-02-23T02:07:45;0.50;;;0.20;;
21806;SDS011;11065;50.786;7.840;2024-02-23T02:10:18;1.03;;;0.20;;
21806;SDS011;11065;50.786;7.840;2024-02-23T02:12:47;0.87;;;0.10;;
21806;SDS011;11065;50.786;7.840;2024-02-23T02:15:15;1.00;;;0.30;;
21806;SDS011;11065;50.786;7.840;2024-02-23T02:17:43;2.10;;;0.20;;
21806;SDS011;11065;50.786;7.840;2024-02-23T02:20:11;0.67;;;0.30;;
21806;SDS011;11065;50.786;7.840;2024-02-23T02:22:40;0.93;;;0.30;;
21806;SDS011;11065;50.786;7.840;2024-02-23T02:25:08;0.17;;;0.10;;
21806;SDS011;11065;50.786;7.840;2024-02-23T02:27:37;0.33;;;0.17;;
21806;SDS011;11065;50.786;7.840;2024-02-23T02:30:06;0.80;;;0.20;;
21806;SDS011;11065;50.786;7.840;2024-02-23T02:32:35;0.43;;;0.20;;
21806;SDS011;11065;50.786;7.840;2024-02-23T02:35:04;2.20;;;0.37;;
21806;SDS011;11065;50.786;7.840;2024-02-23T02:37:33;1.07;;;0.10;;
21806;SDS011;11065;50.786;7.840;2024-02-23T02:40:02;1.07;;;0.20;;
21806;SDS011;11065;50.786;7.840;2024-02-23T02:42:31;0.47;;;0.17;;
21806;SDS011;11065;50.786;7.840;2024-02-23T02:45:00;0.73;;;0.20;;
21806;SDS011;11065;50.786;7.840;2024-02-23T02:47:29;0.40;;;0.20;;
21806;SDS011;11065;50.786;7.840;2024-02-23T02:49:57;0.50;;;0.10;;
21806;SDS011;11065;50.786;7.840;2024-02-23T02:52:25;1.00;;;0.30;;
21806;SDS011;11065;50.786;7.840;2024-02-23T02:54:54;1.43;;;0.27;;
21806;SDS011;11065;50.786;7.840;2024-02-23T02:57:22;0.93;;;0.50;;
21806;SDS011;11065;50.786;7.840;2024-02-23T02:59:50;0.73;;;0.20;;
21806;SDS011;11065;50.786;7.840;2024-02-23T03:02:20;0.93;;;0.27;;
21806;SDS011;11065;50.786;7.840;2024-02-23T03:04:48;1.03;;;0.23;;
21806;SDS011;11065;50.786;7.840;2024-02-23T03:07:16;1.40;;;0.30;;
21806;SDS011;11065;50.786;7.840;2024-02-23T03:09:44;2.13;;;0.30;;
21806;SDS011;11065;50.786;7.840;2024-02-23T03:12:12;0.50;;;0.20;;
21806;SDS011;11065;50.786;7.840;2024-02-23T03:14:40;0.57;;;0.20;;
21806;SDS011;11065;50.786;7.840;2024-02-23T03:17:08;0.43;;;0.20;;
21806;SDS011;11065;50.786;7.840;2024-02-23T03:19:38;1.77;;;0.20;;
21806;SDS011;11065;50.786;7.840;2024-02-23T03:22:06;2.80;;;0.30;;
21806;SDS011;11065;50.786;7.840;2024-02-23T03:24:34;1.13;;;0.40;;
21806;SDS011;11065;50.786;7.840;2024-02-23T03:27:02;1.50;;;0.30;;
21806;SDS011;11065;50.786;7.840;2024-02-23T03:29:31;1.03;;;0.37;;
21806;SDS011;11065;50.786;7.840;2024-02-23T03:31:59;0.80;;;0.50;;
21806;SDS011;11065;50.786;7.840;2024-02-23T03:34:28;1.33;;;0.37;;
21806;SDS011;11065;50.786;7.840;2024-02-23T03:36:58;4.30;;;0.40;;
21806;SDS011;11065;50.786;7.840;2024-02-23T03:39:27;2.07;;;0.50;;
21806;SDS011;11065;50.786;7.840;2024-02-23T03:41:56;0.43;;;0.23;;
21806;SDS011;11065;50.786;7.840;2024-02-23T03:44:23;1.20;;;0.20;;
21806;SDS011;11065;50.786;7.840;2024-02-23T03:46:51;1.73;;;0.40;;
21806;SDS011;11065;50.786;7.840;2024-02-23T03:49:19;1.60;;;0.30;;
21806;SDS011;11065;50.786;7.840;2024-02-23T03:51:47;1.63;;;0.30;;
21806;SDS011;11065;50.786;7.840;2024-02-23T03:54:17;2.10;;;0.50;;
21806;SDS011;11065;50.786;7.840;2024-02-23T03:56:45;1.10;;;0.40;;
21806;SDS011;11065;50.786;7.840;2024-02-23T03:59:12;1.90;;;0.30;;
21806;SDS011;11065;50.786;7.840;2024-02-23T04:01:40;3.50;;;0.83;;
21806;SDS011;11065;50.786;7.840;2024-02-23T04:04:08;0.80;;;0.30;;
21806;SDS011;11065;50.786;7.840;2024-02-23T04:06:36;1.83;;;0.37;;
21806;SDS011;11065;50.786;7.840;2024-02-23T04:09:04;1.40;;;0.40;;
21806;SDS011;11065;50.786;7.840;2024-02-23T04:11:36;2.00;;;0.23;;
21806;SDS011;11065;50.786;7.840;2024-02-23T04:14:04;1.00;;;0.40;;
21806;SDS011;11065;50.786;7.840;2024-02-23T04:16:32;1.20;;;0.33;;
21806;SDS011;11065;50.786;7.840;2024-02-23T04:19:00;1.53;;;0.40;;
21806;SDS011;11065;50.786;7.840;2024-02-23T04:21:28;1.90;;;0.50;;
21806;SDS011;11065;50.786;7.840;2024-02-23T04:23:56;2.40;;;0.43;;
21806;SDS011;11065;50.786;7.840;2024-02-23T04:26:24;1.00;;;0.40;;
21806;SDS011;11065;50.786;7.840;2024-02-23T04:28:53;2.73;;;0.60;;
21806;SDS011;11065;50.786;7.840;2024-02-23T04:31:21;1.57;;;0.40;;
21806;SDS011;11065;50.786;7.840;2024-02-23T04:33:49;0.40;;;0.30;;
21806;SDS011;11065;50.786;7.840;2024-02-23T04:36:18;1.07;;;0.30;;
21806;SDS011;11065;50.786;7.840;2024-02-23T04:38:47;1.60;;;0.70;;
21806;SDS011;11065;50.786;7.840;2024-02-23T04:41:15;1.33;;;0.43;;
21806;SDS011;11065;50.786;7.840;2024-02-23T04:43:47;1.23;;;0.37;;
21806;SDS011;11065;50.786;7.840;2024-02-23T04:46:16;1.13;;;0.60;;
21806;SDS011;11065;50.786;7.840;2024-02-23T04:48:44;0.93;;;0.50;;
21806;SDS011;11065;50.786;7.840;2024-02-23T04:51:12;0.97;;;0.30;;
21806;SDS011;11065;50.786;7.840;2024-02-23T04:53:40;0.40;;;0.30;;
21806;SDS011;11065;50.786;7.840;2024-02-23T04:56:08;0.27;;;0.20;;
21806;SDS011;11065;50.786;7.840;2024-02-23T04:58:36;1.60;;;0.33;;
21806;SDS011;11065;50.786;7.840;2024-02-23T05:01:05;0.73;;;0.30;;
21806;SDS011;11065;50.786;7.840;2024-02-23T05:03:34;1.10;;;0.30;;
21806;SDS011;11065;50.786;7.840;2024-02-23T05:06:02;2.63;;;0.60;;
21806;SDS011;11065;50.786;7.840;2024-02-23T05:08:30;1.07;;;0.30;;
21806;SDS011;11065;50.786;7.840;2024-02-23T05:10:59;1.17;;;0.30;;
21806;SDS011;11065;50.786;7.840;2024-02-23T05:13:27;0.77;;;0.30;;
21806;SDS011;11065;50.786;7.840;2024-02-23T05:15:56;1.13;;;0.30;;
21806;SDS011;11065;50.786;7.840;2024-02-23T05:18:24;1.27;;;0.30;;
21806;SDS011;11065;50.786;7.840;2024-02-23T05:20:53;1.10;;;0.40;;
21806;SDS011;11065;50.786;7.840;2024-02-23T05:23:21;2.33;;;0.40;;
21806;SDS011;11065;50.786;7.840;2024-02-23T05:25:49;3.27;;;0.63;;
21806;SDS011;11065;50.786;7.840;2024-02-23T05:28:17;0.60;;;0.30;;
21806;SDS011;11065;50.786;7.840;2024-02-23T05:30:46;2.20;;;0.60;;
21806;SDS011;11065;50.786;7.840;2024-02-23T05:33:13;1.60;;;0.50;;
21806;SDS011;11065;50.786;7.840;2024-02-23T05:35:41;1.27;;;0.60;;
21806;SDS011;11065;50.786;7.840;2024-02-23T05:38:11;2.43;;;0.60;;
21806;SDS011;11065;50.786;7.840;2024-02-23T05:40:39;1.37;;;0.53;;
21806;SDS011;11065;50.786;7.840;2024-02-23T05:43:07;2.47;;;0.70;;
21806;SDS011;11065;50.786;7.840;2024-02-23T05:45:35;1.30;;;0.60;;
21806;SDS011;11065;50.786;7.840;2024-02-23T05:48:03;2.23;;;0.60;;
21806;SDS011;11065;50.786;7.840;2024-02-23T05:50:32;2.17;;;0.70;;
21806;SDS011;11065;50.786;7.840;2024-02-23T05:53:00;1.80;;;0.67;;
21806;SDS011;11065;50.786;7.840;2024-02-23T05:55:30;1.43;;;0.70;;
21806;SDS011;11065;50.786;7.840;2024-02-23T05:57:58;3.20;;;0.83;;
21806;SDS011;11065;50.786;7.840;2024-02-23T06:00:26;2.20;;;0.80;;
21806;SDS011;11065;50.786;7.840;2024-02-23T06:02:54;2.10;;;0.80;;
21806;SDS011;11065;50.786;7.840;2024-02-23T06:05:22;2.13;;;0.67;;
21806;SDS011;11065;50.786;7.840;2024-02-23T06:07:54;2.50;;;0.70;;
21806;SDS011;11065;50.786;7.840;2024-02-23T06:10:23;2.63;;;0.70;;
21806;SDS011;11065;50.786;7.840;2024-02-23T06:12:52;1.40;;;0.60;;
21806;SDS011;11065;50.786;7.840;2024-02-23T06:15:22;1.10;;;0.40;;
21806;SDS011;11065;50.786;7.840;2024-02-23T06:17:50;1.30;;;0.67;;
21806;SDS011;11065;50.786;7.840;2024-02-23T06:20:18;2.60;;;0.60;;
21806;SDS011;11065;50.786;7.840;2024-02-23T06:22:47;1.50;;;0.53;;
21806;SDS011;11065;50.786;7.840;2024-02-23T06:25:15;2.07;;;1.10;;
21806;SDS011;11065;50.786;7.840;2024-02-23T06:27:43;1.33;;;0.40;;
21806;SDS011;11065;50.786;7.840;2024-02-23T06:30:12;2.53;;;0.70;;
21806;SDS011;11065;50.786;7.840;2024-02-23T06:32:40;2.37;;;0.50;;
21806;SDS011;11065;50.786;7.840;2024-02-23T06:35:09;3.13;;;0.60;;
21806;SDS011;11065;50.786;7.840;2024-02-23T06:37:38;2.53;;;0.60;;
21806;SDS011;11065;50.786;7.840;2024-02-23T06:40:06;1.63;;;0.70;;
21806;SDS011;11065;50.786;7.840;2024-02-23T06:42:35;2.50;;;0.70;;
21806;SDS011;11065;50.786;7.840;2024-02-23T06:45:03;2.67;;;0.60;;
21806;SDS011;11065;50.786;7.840;2024-02-23T06:47:33;2.23;;;0.80;;
21806;SDS011;11065;50.786;7.840;2024-02-23T06:50:01;2.13;;;0.80;;
21806;SDS011;11065;50.786;7.840;2024-02-23T06:52:31;1.60;;;0.67;;
21806;SDS011;11065;50.786;7.840;2024-02-23T06:54:59;1.60;;;0.80;;
21806;SDS011;11065;50.786;7.840;2024-02-23T06:57:27;2.77;;;1.03;;
21806;SDS011;11065;50.786;7.840;2024-02-23T06:59:57;2.93;;;0.80;;
21806;SDS011;11065;50.786;7.840;2024-02-23T07:02:25;2.73;;;0.77;;
21806;SDS011;11065;50.786;7.840;2024-02-23T07:04:54;2.33;;;0.80;;
21806;SDS011;11065;50.786;7.840;2024-02-23T07:07:23;2.10;;;0.73;;
21806;SDS011;11065;50.786;7.840;2024-02-23T07:09:54;3.23;;;0.70;;
21806;SDS011;11065;50.786;7.840;2024-02-23T07:12:22;3.23;;;0.67;;
21806;SDS011;11065;50.786;7.840;2024-02-23T07:14:51;3.20;;;0.80;;
21806;SDS011;11065;50.786;7.840;2024-02-23T07:17:19;3.83;;;0.70;;
21806;SDS011;11065;50.786;7.840;2024-02-23T07:19:47;1.93;;;0.50;;
21806;SDS011;11065;50.786;7.840;2024-02-23T07:22:18;3.07;;;0.97;;
21806;SDS011;11065;50.786;7.840;2024-02-23T07:24:46;3.17;;;0.80;;
21806;SDS011;11065;50.786;7.840;2024-02-23T07:27:15;2.90;;;0.83;;
21806;SDS011;11065;50.786;7.840;2024-02-23T07:29:43;1.97;;;0.60;;
21806;SDS011;11065;50.786;7.840;2024-02-23T07:32:11;5.47;;;0.83;;
21806;SDS011;11065;50.786;7.840;2024-02-23T07:34:40;2.00;;;0.60;;
21806;SDS011;11065;50.786;7.840;2024-02-23T07:37:08;1.90;;;0.60;;
21806;SDS011;11065;50.786;7.840;2024-02-23T07:39:37;2.70;;;0.80;;
21806;SDS011;11065;50.786;7.840;2024-02-23T07:42:05;4.20;;;0.87;;
21806;SDS011;11065;50.786;7.840;2024-02-23T07:44:35;3.27;;;1.00;;
21806;SDS011;11065;50.786;7.840;2024-02-23T07:47:04;3.53;;;0.70;;
21806;SDS011;11065;50.786;7.840;2024-02-23T07:49:34;4.90;;;0.77;;
21806;SDS011;11065;50.786;7.840;2024-02-23T07:52:02;2.73;;;0.60;;
21806;SDS011;11065;50.786;7.840;2024-02-23T07:54:31;2.47;;;0.63;;
21806;SDS011;11065;50.786;7.840;2024-02-23T07:57:00;2.60;;;0.60;;
21806;SDS011;11065;50.786;7.840;2024-02-23T07:59:30;2.43;;;0.70;;
21806;SDS011;11065;50.786;7.840;2024-02-23T08:01:58;2.63;;;0.93;;
21806;SDS011;11065;50.786;7.840;2024-02-23T08:04:26;4.07;;;1.13;;
21806;SDS011;11065;50.786;7.840;2024-02-23T08:06:54;4.40;;;1.10;;
21806;SDS011;11065;50.786;7.840;2024-02-23T08:09:21;3.37;;;1.53;;
21806;SDS011;11065;50.786;7.840;2024-02-23T08:11:50;3.47;;;0.80;;
21806;SDS011;11065;50.786;7.840;2024-02-23T08:14:19;4.83;;;0.77;;
21806;SDS011;11065;50.786;7.840;2024-02-23T08:16:47;2.77;;;0.70;;
21806;SDS011;11065;50.786;7.840;2024-02-23T08:19:16;3.03;;;0.70;;
21806;SDS011;11065;50.786;7.840;2024-02-23T08:21:44;3.87;;;1.00;;
21806;SDS011;11065;50.786;7.840;2024-02-23T08:24:13;3.50;;;0.80;;
21806;SDS011;11065;50.786;7.840;2024-02-23T08:26:40;3.43;;;0.73;;
21806;SDS011;11065;50.786;7.840;2024-02-23T08:29:09;3.03;;;0.83;;
21806;SDS011;11065;50.786;7.840;2024-02-23T08:31:38;4.00;;;1.00;;
21806;SDS011;11065;50.786;7.840;2024-02-23T08:34:08;2.87;;;0.80;;
21806;SDS011;11065;50.786;7.840;2024-02-23T08:36:36;4.53;;;1.23;;
21806;SDS011;11065;50.786;7.840;2024-02-23T08:39:04;3.90;;;0.80;;
21806;SDS011;11065;50.786;7.840;2024-02-23T08:41:31;4.13;;;0.70;;
21806;SDS011;11065;50.786;7.840;2024-02-23T08:43:59;2.93;;;0.83;;
21806;SDS011;11065;50.786;7.840;2024-02-23T08:46:27;4.00;;;0.70;;
21806;SDS011;11065;50.786;7.840;2024-02-23T08:48:57;3.33;;;0.60;;
21806;SDS011;11065;50.786;7.840;2024-02-23T08:51:25;3.00;;;0.80;;
21806;SDS011;11065;50.786;7.840;2024-02-23T08:53:52;3.63;;;0.93;;
21806;SDS011;11065;50.786;7.840;2024-02-23T08:56:25;3.87;;;0.83;;
21806;SDS011;11065;50.786;7.840;2024-02-23T08:58:53;2.93;;;0.73;;
21806;SDS011;11065;50.786;7.840;2024-02-23T09:01:21;5.03;;;1.00;;
21806;SDS011;11065;50.786;7.840;2024-02-23T09:03:49;4.07;;;0.80;;
21806;SDS011;11065;50.786;7.840;2024-02-23T09:06:18;3.53;;;0.77;;
21806;SDS011;11065;50.786;7.840;2024-02-23T09:08:47;4.13;;;0.70;;
21806;SDS011;11065;50.786;7.840;2024-02-23T09:11:15;3.90;;;1.03;;
21806;SDS011;11065;50.786;7.840;2024-02-23T09:13:43;2.57;;;0.67;;
21806;SDS011;11065;50.786;7.840;2024-02-23T09:16:11;2.10;;;0.90;;
21806;SDS011;11065;50.786;7.840;2024-02-23T09:18:39;3.67;;;0.73;;
21806;SDS011;11065;50.786;7.840;2024-02-23T09:21:08;3.43;;;0.80;;
21806;SDS011;11065;50.786;7.840;2024-02-23T09:23:37;3.10;;;0.60;;
21806;SDS011;11065;50.786;7.840;2024-02-23T09:26:08;4.10;;;1.07;;
21806;SDS011;11065;50.786;7.840;2024-02-23T09:28:37;2.60;;;0.90;;
21806;SDS011;11065;50.786;7.840;2024-02-23T09:31:07;1.30;;;0.50;;
21806;SDS011;11065;50.786;7.840;2024-02-23T09:33:35;2.93;;;0.47;;
21806;SDS011;11065;50.786;7.840;2024-02-23T09:36:03;2.57;;;0.50;;
21806;SDS011;11065;50.786;7.840;2024-02-23T09:38:32;1.80;;;0.60;;
21806;SDS011;11065;50.786;7.840;2024-02-23T09:41:01;3.03;;;0.60;;
21806;SDS011;11065;50.786;7.840;2024-02-23T09:43:29;2.30;;;0.60;;
21806;SDS011;11065;50.786;7.840;2024-02-23T09:45:58;1.87;;;0.50;;
21806;SDS011;11065;50.786;7.840;2024-02-23T09:48:27;4.03;;;0.80;;
21806;SDS011;11065;50.786;7.840;2024-02-23T09:51:00;3.13;;;0.87;;
21806;SDS011;11065;50.786;7.840;2024-02-23T09:53:29;1.63;;;0.77;;
21806;SDS011;11065;50.786;7.840;2024-02-23T09:55:58;2.77;;;0.70;;
21806;SDS011;11065;50.786;7.840;2024-02-23T09:58:28;1.70;;;0.60;;
21806;SDS011;11065;50.786;7.840;2024-02-23T10:00:57;2.90;;;0.83;;
21806;SDS011;11065;50.786;7.840;2024-02-23T10:03:26;3.60;;;0.90;;
21806;SDS011;11065;50.786;7.840;2024-02-23T10:05:56;1.30;;;0.50;;
21806;SDS011;11065;50.786;7.840;2024-02-23T10:08:26;2.30;;;0.80;;
21806;SDS011;11065;50.786;7.840;2024-02-23T10:10:54;4.93;;;1.13;;
21806;SDS011;11065;50.786;7.840;2024-02-23T10:13:23;3.77;;;0.90;;
21806;SDS011;11065;50.786;7.840;2024-02-23T10:15:52;3.27;;;0.77;;
21806;SDS011;11065;50.786;7.840;2024-02-23T10:18:39;2.50;;;0.60;;
21806;SDS011;11065;50.786;7.840;2024-02-23T10:21:08;4.03;;;0.70;;
21806;SDS011;11065;50.786;7.840;2024-02-23T10:23:36;2.63;;;0.60;;
21806;SDS011;11065;50.786;7.840;2024-02-23T10:26:04;4.93;;;0.90;;
21806;SDS011;11065;50.786;7.840;2024-02-23T10:28:32;3.07;;;0.53;;
21806;SDS011;11065;50.786;7.840;2024-02-23T10:31:03;2.10;;;0.57;;
21806;SDS011;11065;50.786;7.840;2024-02-23T10:33:34;2.63;;;0.67;;
21806;SDS011;11065;50.786;7.840;2024-02-23T10:36:03;2.27;;;0.70;;
21806;SDS011;11065;50.786;7.840;2024-02-23T10:38:34;3.23;;;0.90;;
21806;SDS011;11065;50.786;7.840;2024-02-23T10:41:05;3.40;;;1.00;;
21806;SDS011;11065;50.786;7.840;2024-02-23T10:43:36;3.10;;;0.70;;
21806;SDS011;11065;50.786;7.840;2024-02-23T10:46:09;3.60;;;0.60;;
21806;SDS011;11065;50.786;7.840;2024-02-23T10:48:40;4.77;;;1.20;;
21806;SDS011;11065;50.786;7.840;2024-02-23T10:51:10;2.40;;;0.70;;
21806;SDS011;11065;50.786;7.840;2024-02-23T10:53:45;4.73;;;0.90;;
21806;SDS011;11065;50.786;7.840;2024-02-23T10:56:15;3.27;;;0.60;;
21806;SDS011;11065;50.786;7.840;2024-02-23T10:58:43;4.25;;;0.70;;
21806;SDS011;11065;50.786;7.840;2024-02-23T11:01:13;3.50;;;0.90;;
21806;SDS011;11065;50.786;7.840;2024-02-23T11:03:42;2.40;;;0.80;;
21806;SDS011;11065;50.786;7.840;2024-02-23T11:06:14;1.67;;;0.52;;
21806;SDS011;11065;50.786;7.840;2024-02-23T11:08:47;2.05;;;0.65;;
21806;SDS011;11065;50.786;7.840;2024-02-23T11:11:15;6.50;;;0.70;;
21806;SDS011;11065;50.786;7.840;2024-02-23T11:13:44;2.22;;;0.98;;
21806;SDS011;11065;50.786;7.840;2024-02-23T11:16:21;3.42;;;0.82;;
21806;SDS011;11065;50.786;7.840;2024-02-23T11:18:50;2.83;;;0.70;;
21806;SDS011;11065;50.786;7.840;2024-02-23T11:21:34;1.75;;;0.50;;
21806;SDS011;11065;50.786;7.840;2024-02-23T11:24:03;3.87;;;1.00;;
21806;SDS011;11065;50.786;7.840;2024-02-23T11:26:32;2.40;;;0.60;;
21806;SDS011;11065;50.786;7.840;2024-02-23T11:29:09;3.80;;;1.10;;
21806;SDS011;11065;50.786;7.840;2024-02-23T11:31:44;2.40;;;0.60;;
21806;SDS011;11065;50.786;7.840;2024-02-23T11:34:14;3.23;;;0.80;;
21806;SDS011;11065;50.786;7.840;2024-02-23T11:36:50;2.43;;;0.50;;
21806;SDS011;11065;50.786;7.840;2024-02-23T11:39:19;2.78;;;0.55;;
21806;SDS011;11065;50.786;7.840;2024-02-23T11:41:47;5.07;;;1.02;;
21806;SDS011;11065;50.786;7.840;2024-02-23T11:44:16;3.20;;;0.77;;
21806;SDS011;11065;50.786;7.840;2024-02-23T11:46:46;1.88;;;0.80;;
21806;SDS011;11065;50.786;7.840;2024-02-23T11:49:14;4.15;;;1.08;;
21806;SDS011;11065;50.786;7.840;2024-02-23T11:51:42;2.38;;;0.68;;
21806;SDS011;11065;50.786;7.840;2024-02-23T11:54:11;1.65;;;0.50;;
21806;SDS011;11065;50.786;7.840;2024-02-23T11:56:40;2.60;;;0.70;;
21806;SDS011;11065;50.786;7.840;2024-02-23T11:59:08;3.60;;;0.50;;
21806;SDS011;11065;50.786;7.840;2024-02-23T12:01:36;2.33;;;0.65;;
21806;SDS011;11065;50.786;7.840;2024-02-23T12:04:05;1.38;;;0.65;;
21806;SDS011;11065;50.786;7.840;2024-02-23T12:06:34;2.58;;;0.70;;
21806;SDS011;11065;50.786;7.840;2024-02-23T12:09:02;2.80;;;0.60;;
21806;SDS011;11065;50.786;7.840;2024-02-23T12:11:31;3.00;;;0.60;;
21806;SDS011;11065;50.786;7.840;2024-02-23T12:13:59;3.17;;;0.70;;
21806;SDS011;11065;50.786;7.840;2024-02-23T12:16:28;3.10;;;0.60;;
21806;SDS011;11065;50.786;7.840;2024-02-23T12:18:57;2.13;;;0.57;;
21806;SDS011;11065;50.786;7.840;2024-02-23T12:21:26;3.13;;;0.60;;
21806;SDS011;11065;50.786;7.840;2024-02-23T12:23:54;1.20;;;0.40;;
21806;SDS011;11065;50.786;7.840;2024-02-23T12:26:22;1.93;;;0.63;;
21806;SDS011;11065;50.786;7.840;2024-02-23T12:28:50;2.27;;;0.70;;
21806;SDS011;11065;50.786;7.840;2024-02-23T12:31:23;2.70;;;0.70;;
21806;SDS011;11065;50.786;7.840;2024-02-23T12:33:52;1.87;;;0.40;;
21806;SDS011;11065;50.786;7.840;2024-02-23T12:36:20;2.63;;;0.50;;
21806;SDS011;11065;50.786;7.840;2024-02-23T12:38:51;2.03;;;0.50;;
21806;SDS011;11065;50.786;7.840;2024-02-23T12:41:19;3.40;;;0.70;;
21806;SDS011;11065;50.786;7.840;2024-02-23T12:43:47;2.50;;;0.50;;
21806;SDS011;11065;50.786;7.840;2024-02-23T12:46:15;2.17;;;0.60;;
21806;SDS011;11065;50.786;7.840;2024-02-23T12:48:43;1.90;;;0.53;;
21806;SDS011;11065;50.786;7.840;2024-02-23T12:51:11;1.23;;;0.47;;
21806;SDS011;11065;50.786;7.840;2024-02-23T12:53:39;1.17;;;0.60;;
21806;SDS011;11065;50.786;7.840;2024-02-23T12:56:10;3.07;;;0.60;;
21806;SDS011;11065;50.786;7.840;2024-02-23T12:58:40;1.60;;;0.40;;
21806;SDS011;11065;50.786;7.840;2024-02-23T13:01:10;1.07;;;0.40;;
21806;SDS011;11065;50.786;7.840;2024-02-23T13:03:38;1.23;;;0.70;;
21806;SDS011;11065;50.786;7.840;2024-02-23T13:06:08;2.10;;;0.57;;
21806;SDS011;11065;50.786;7.840;2024-02-23T13:08:36;1.77;;;0.50;;
21806;SDS011;11065;50.786;7.840;2024-02-23T13:11:05;0.90;;;0.50;;
21806;SDS011;11065;50.786;7.840;2024-02-23T13:13:35;1.73;;;0.40;;
21806;SDS011;11065;50.786;7.840;2024-02-23T13:16:05;1.43;;;0.50;;
21806;SDS011;11065;50.786;7.840;2024-02-23T13:18:34;1.60;;;0.50;;
21806;SDS011;11065;50.786;7.840;2024-02-23T13:21:03;2.50;;;0.50;;
21806;SDS011;11065;50.786;7.840;2024-02-23T13:23:31;1.47;;;0.40;;
21806;SDS011;11065;50.786;7.840;2024-02-23T13:25:59;2.83;;;0.60;;
21806;SDS011;11065;50.786;7.840;2024-02-23T13:28:29;2.57;;;0.50;;
21806;SDS011;11065;50.786;7.840;2024-02-23T13:30:58;1.17;;;0.47;;
21806;SDS011;11065;50.786;7.840;2024-02-23T13:33:26;3.10;;;0.50;;
21806;SDS011;11065;50.786;7.840;2024-02-23T13:35:54;2.07;;;0.50;;
21806;SDS011;11065;50.786;7.840;2024-02-23T13:38:22;1.20;;;0.40;;
21806;SDS011;11065;50.786;7.840;2024-02-23T13:40:51;2.90;;;0.53;;
21806;SDS011;11065;50.786;7.840;2024-02-23T13:43:19;3.43;;;0.70;;
21806;SDS011;11065;50.786;7.840;2024-02-23T13:45:48;1.63;;;0.50;;
21806;SDS011;11065;50.786;7.840;2024-02-23T13:48:19;2.03;;;0.60;;
21806;SDS011;11065;50.786;7.840;2024-02-23T13:50:47;2.10;;;0.60;;
21806;SDS011;11065;50.786;7.840;2024-02-23T13:53:15;1.23;;;0.40;;
21806;SDS011;11065;50.786;7.840;2024-02-23T13:55:43;2.20;;;0.60;;
21806;SDS011;11065;50.786;7.840;2024-02-23T13:58:12;2.07;;;0.60;;
21806;SDS011;11065;50.786;7.840;2024-02-23T14:00:40;3.23;;;0.60;;
21806;SDS011;11065;50.786;7.840;2024-02-23T14:03:08;1.60;;;0.53;;
21806;SDS011;11065;50.786;7.840;2024-02-23T14:05:39;2.37;;;0.60;;
21806;SDS011;11065;50.786;7.840;2024-02-23T14:08:10;2.57;;;0.70;;
21806;SDS011;11065;50.786;7.840;2024-02-23T14:10:38;2.37;;;0.47;;
21806;SDS011;11065;50.786;7.840;2024-02-23T14:13:09;2.27;;;0.80;;
21806;SDS011;11065;50.786;7.840;2024-02-23T14:15:37;0.83;;;0.43;;
21806;SDS011;11065;50.786;7.840;2024-02-23T14:18:05;1.80;;;0.50;;
21806;SDS011;11065;50.786;7.840;2024-02-23T14:20:33;1.83;;;0.47;;
21806;SDS011;11065;50.786;7.840;2024-02-23T14:23:03;3.53;;;0.80;;
21806;SDS011;11065;50.786;7.840;2024-02-23T14:25:31;2.43;;;0.50;;
21806;SDS011;11065;50.786;7.840;2024-02-23T14:27:59;1.50;;;0.50;;
21806;SDS011;11065;50.786;7.840;2024-02-23T14:30:27;1.10;;;0.40;;
21806;SDS011;11065;50.786;7.840;2024-02-23T14:32:55;2.03;;;0.60;;
21806;SDS011;11065;50.786;7.840;2024-02-23T14:35:23;2.33;;;0.60;;
21806;SDS011;11065;50.786;7.840;2024-02-23T14:37:51;1.70;;;0.50;;
21806;SDS011;11065;50.786;7.840;2024-02-23T14:40:20;3.63;;;0.63;;
21806;SDS011;11065;50.786;7.840;2024-02-23T14:42:48;0.97;;;0.40;;
21806;SDS011;11065;50.786;7.840;2024-02-23T14:45:16;1.30;;;0.40;;
21806;SDS011;11065;50.786;7.840;2024-02-23T14:47:44;1.77;;;0.47;;
21806;SDS011;11065;50.786;7.840;2024-02-23T14:50:12;1.57;;;0.33;;
21806;SDS011;11065;50.786;7.840;2024-02-23T14:52:40;1.83;;;0.50;;
21806;SDS011;11065;50.786;7.840;2024-02-23T14:55:10;1.83;;;0.63;;
21806;SDS011;11065;50.786;7.840;2024-02-23T14:57:40;1.50;;;0.50;;